Harumaru No.3 — JD3839 — position and weather

sailwx.info

Track history (hours):
 
Tides and Currents Weather Stations Pressure Air Temp Water Temp Dewpoint Dewpoint Depression Visibility Wind Speed Wind Dir Waves Ship Positions

Harumaru No.3

Last reported at 2017-Sep-21 17:31 UTC. Time now 2017-Sep-21 17:48 UTC.
Position N 35°08' E 139°46'.

Length 154 m; draft 6.5 m.

Type: Cargo ship. MMSI: 431006912.

Date/timePositionNaut miles runAvg speedWind from/ knotsBaromVisibWave heightAir tempDewpointWater temp
2017-Sep-21 17:31N 35°08' E 139°46'918.9
2017-Sep-21 17:01N 34°60' E 139°40'1121.7
2017-Sep-21 16:31N 34°55' E 139°29'1221.0
2017-Sep-21 15:55N 34°47' E 139°17'21917.5
2017-Sep-21 03:22N 33°54' E 134°59'820.6
2017-Sep-21 02:59N 34°02' E 134°59'1020.3
2017-Sep-21 02:31N 34°11' E 134°59'1019.7
2017-Sep-21 02:00N 34°21' E 134°59'1019.8
2017-Sep-21 01:30N 34°27' E 135°09'918.1
2017-Sep-21 01:00N 34°32' E 135°19'4 1.2
2017-Sep-20 21:17N 34°31' E 135°24'0 0.0
2017-Sep-20 20:59N 34°31' E 135°24'0 0.8
2017-Sep-20 20:30N 34°32' E 135°24'612.7
2017-Sep-20 20:00N 34°33' E 135°17'1020.2
2017-Sep-20 19:30N 34°35' E 135°04'919.0
2017-Sep-20 19:00N 34°34' E 134°53'11 0.8
2017-Sep-20 03:52N 34°34' E 134°39'718.2
2017-Sep-20 03:28N 34°34' E 134°48'1018.4
2017-Sep-20 02:57N 34°37' E 134°59'817.4
2017-Sep-20 02:30N 34°35' E 135°08'918.3
2017-Sep-20 02:00N 34°33' E 135°19'510.0
2017-Sep-20 01:30N 34°31' E 135°24'0 0.0
2017-Sep-20 00:58N 34°31' E 135°24'0 0.0
2017-Sep-20 00:28N 34°31' E 135°24'0 0.0
2017-Sep-19 23:58N 34°31' E 135°24'0 0.0
2017-Sep-19 23:22N 34°31' E 135°24'0 0.0
2017-Sep-19 22:52N 34°31' E 135°24'0 0.0
2017-Sep-19 22:22N 34°31' E 135°24'0 0.1
2017-Sep-19 21:58N 34°31' E 135°24'3 7.2
2017-Sep-19 21:30N 34°32' E 135°20'1019.2
2017-Sep-19 21:00N 34°27' E 135°11'1019.3
2017-Sep-19 20:31N 34°20' E 135°02'918.7
2017-Sep-19 20:00N 34°11' E 135°00'1020.3
2017-Sep-19 19:30N 34°01' E 135°00'21416.1
2017-Sep-19 06:12N 34°45' E 139°14'1317.1
2017-Sep-19 05:27N 34°53' E 139°26'817.0
2017-Sep-19 05:00N 34°58' E 139°33'918.4
2017-Sep-19 04:30N 35°05' E 139°41'816.8
2017-Sep-19 04:00N 35°12' E 139°46'611.6
2017-Sep-19 03:30N 35°18' E 139°44'713.5
2017-Sep-19 03:01N 35°24' E 139°43'1019.7
2017-Sep-19 02:30N 35°30' E 139°52'917.6
2017-Sep-19 02:00N 35°34' E 140°02'4 0.1
2017-Sep-17 00:44N 35°35' E 140°06'2 8.8
2017-Sep-17 00:28N 35°35' E 140°03'614.0
2017-Sep-17 00:00N 35°32' E 139°57'816.4
2017-Sep-16 23:30N 35°27' E 139°49'612.9
2017-Sep-16 23:00N 35°21' E 139°45'611.0
2017-Sep-16 22:30N 35°16' E 139°47'713.9
2017-Sep-16 22:00N 35°09' E 139°46'918.8
2017-Sep-16 21:30N 35°01' E 139°40'1120.0
2017-Sep-16 20:58N 34°55' E 139°29'23012.8
2017-Sep-16 02:57N 33°53' E 135°01'920.5
2017-Sep-16 02:30N 34°02' E 134°59'1121.2
2017-Sep-16 02:00N 34°12' E 134°58'1120.5
2017-Sep-16 01:29N 34°23' E 135°02'1021.0
2017-Sep-16 01:00N 34°29' E 135°12'917.4
2017-Sep-16 00:30N 34°33' E 135°21'3 5.1
2017-Sep-15 23:56N 34°31' E 135°24'0 0.0
2017-Sep-15 23:08N 34°31' E 135°24'0 0.0
2017-Sep-15 22:56N 34°31' E 135°24'0 0.0
2017-Sep-15 22:26N 34°31' E 135°24'0 0.0
2017-Sep-15 21:56N 34°31' E 135°24'0 0.2
2017-Sep-15 21:23N 34°31' E 135°24'3 8.4
2017-Sep-15 21:00N 34°33' E 135°21'1019.3
2017-Sep-15 20:30N 34°34' E 135°09'918.4
2017-Sep-15 20:00N 34°37' E 134°58'14 0.9
2017-Sep-15 04:06N 34°33' E 134°42'720.3
2017-Sep-15 03:46N 34°35' E 134°50'520.8
2017-Sep-15 03:30N 34°37' E 134°56'918.1
2017-Sep-15 03:00N 34°35' E 135°07'918.4
2017-Sep-15 02:30N 34°34' E 135°18'6 8.1
2017-Sep-15 01:49N 34°31' E 135°24'0 0.0
2017-Sep-15 01:25N 34°31' E 135°24'0 0.0
2017-Sep-15 00:55N 34°31' E 135°24'0 0.0
2017-Sep-15 00:25N 34°31' E 135°24'0 0.0
2017-Sep-14 23:55N 34°31' E 135°24'0 0.2
2017-Sep-14 23:25N 34°31' E 135°24'3 6.5
2017-Sep-14 23:00N 34°32' E 135°21'918.7
2017-Sep-14 22:30N 34°27' E 135°12'1019.4
2017-Sep-14 22:00N 34°21' E 135°03'917.7
2017-Sep-14 21:30N 34°12' E 134°60'1020.0
2017-Sep-14 21:01N 34°02' E 135°01'21315.8
2017-Sep-14 07:31N 34°44' E 139°14'017.6
2017-Sep-14 07:30N 34°45' E 139°14'917.7
2017-Sep-14 07:00N 34°50' E 139°23'918.5
2017-Sep-14 06:30N 34°57' E 139°30'1019.2
2017-Sep-14 06:00N 35°04' E 139°39'917.5
2017-Sep-14 05:30N 35°10' E 139°45'612.6
2017-Sep-14 05:00N 35°17' E 139°45'713.2
2017-Sep-14 04:30N 35°23' E 139°42'1019.5
2017-Sep-14 04:00N 35°29' E 139°51'918.4
2017-Sep-14 03:31N 35°34' E 140°01'5 0.7
2017-Sep-13 20:17N 35°35' E 140°06'3 8.1
2017-Sep-13 19:53N 35°35' E 140°03'616.3
2017-Sep-13 19:30N 35°31' E 139°56'816.9
2017-Sep-13 19:00N 35°26' E 139°48'612.6
2017-Sep-13 18:30N 35°20' E 139°44'611.5
2017-Sep-13 18:00N 35°15' E 139°47'815.7
2017-Sep-13 17:31N 35°07' E 139°46'1019.5
2017-Sep-13 17:01N 34°60' E 139°39'1220.1
2017-Sep-13 16:24N 34°53' E 139°26'1021.4
2017-Sep-13 15:56N 34°46' E 139°17'21817.1
2017-Sep-13 03:14N 33°58' E 135°00'418.7
2017-Sep-13 03:00N 34°03' E 134°60'1019.2
2017-Sep-13 02:30N 34°12' E 134°58'1018.8
2017-Sep-13 01:58N 34°22' E 135°01'919.9
2017-Sep-13 01:30N 34°27' E 135°10'918.0
2017-Sep-13 01:00N 34°32' E 135°19'4 1.0
2017-Sep-12 20:44N 34°31' E 135°24'1 3.5
2017-Sep-12 20:29N 34°32' E 135°24'714.6
2017-Sep-12 20:00N 34°33' E 135°15'1020.1
2017-Sep-12 19:30N 34°36' E 135°04'1019.1
2017-Sep-12 19:00N 34°34' E 134°52'12 0.8
2017-Sep-12 03:53N 34°33' E 134°37'920.2
2017-Sep-12 03:25N 34°34' E 134°49'922.1
2017-Sep-12 03:00N 34°37' E 134°59'1020.2
2017-Sep-12 02:31N 34°35' E 135°11'917.5
2017-Sep-12 02:00N 34°33' E 135°21'3 5.5
2017-Sep-12 01:27N 34°31' E 135°24'0 0.0
2017-Sep-12 00:57N 34°31' E 135°24'0 0.0
2017-Sep-12 00:27N 34°31' E 135°24'0 0.0
2017-Sep-11 23:51N 34°31' E 135°24'0 0.0
2017-Sep-11 23:27N 34°31' E 135°24'0 0.0
2017-Sep-11 22:57N 34°31' E 135°24'2 5.2
2017-Sep-11 22:30N 34°33' E 135°22'817.0
2017-Sep-11 22:00N 34°28' E 135°13'1019.2
2017-Sep-11 21:30N 34°22' E 135°05'817.0
2017-Sep-11 21:00N 34°14' E 134°60'1020.7
2017-Sep-11 20:30N 34°04' E 135°00'  
Track history (hours):
 
Tides and Currents Weather Stations Pressure Air Temp Water Temp Dewpoint Dewpoint Depression Visibility Wind Speed Wind Dir Waves Ship Positions

Harumaru No.3

Last reported at 2017-Sep-21 17:31 UTC. Time now 2017-Sep-21 17:48 UTC.
Position N 35°08' E 139°46'.

Length 154 m; draft 6.5 m.

Type: Cargo ship. MMSI: 431006912.

Date/timePositionNaut miles runAvg speedWind from/ knotsBaromVisibWave heightAir tempDewpointWater temp
2017-Sep-21 17:31N 35°08' E 139°46'918.9
2017-Sep-21 17:01N 34°60' E 139°40'1121.7
2017-Sep-21 16:31N 34°55' E 139°29'1221.0
2017-Sep-21 15:55N 34°47' E 139°17'21917.5
2017-Sep-21 03:22N 33°54' E 134°59'820.6
2017-Sep-21 02:59N 34°02' E 134°59'1020.3
2017-Sep-21 02:31N 34°11' E 134°59'1019.7
2017-Sep-21 02:00N 34°21' E 134°59'1019.8
2017-Sep-21 01:30N 34°27' E 135°09'918.1
2017-Sep-21 01:00N 34°32' E 135°19'4 1.2
2017-Sep-20 21:17N 34°31' E 135°24'0 0.0
2017-Sep-20 20:59N 34°31' E 135°24'0 0.8
2017-Sep-20 20:30N 34°32' E 135°24'612.7
2017-Sep-20 20:00N 34°33' E 135°17'1020.2
2017-Sep-20 19:30N 34°35' E 135°04'919.0
2017-Sep-20 19:00N 34°34' E 134°53'11 0.8
2017-Sep-20 03:52N 34°34' E 134°39'718.2
2017-Sep-20 03:28N 34°34' E 134°48'1018.4
2017-Sep-20 02:57N 34°37' E 134°59'817.4
2017-Sep-20 02:30N 34°35' E 135°08'918.3
2017-Sep-20 02:00N 34°33' E 135°19'510.0
2017-Sep-20 01:30N 34°31' E 135°24'0 0.0
2017-Sep-20 00:58N 34°31' E 135°24'0 0.0
2017-Sep-20 00:28N 34°31' E 135°24'0 0.0
2017-Sep-19 23:58N 34°31' E 135°24'0 0.0
2017-Sep-19 23:22N 34°31' E 135°24'0 0.0
2017-Sep-19 22:52N 34°31' E 135°24'0 0.0
2017-Sep-19 22:22N 34°31' E 135°24'0 0.1
2017-Sep-19 21:58N 34°31' E 135°24'3 7.2
2017-Sep-19 21:30N 34°32' E 135°20'1019.2
2017-Sep-19 21:00N 34°27' E 135°11'1019.3
2017-Sep-19 20:31N 34°20' E 135°02'918.7
2017-Sep-19 20:00N 34°11' E 135°00'1020.3
2017-Sep-19 19:30N 34°01' E 135°00'21416.1
2017-Sep-19 06:12N 34°45' E 139°14'1317.1
2017-Sep-19 05:27N 34°53' E 139°26'817.0
2017-Sep-19 05:00N 34°58' E 139°33'918.4
2017-Sep-19 04:30N 35°05' E 139°41'816.8
2017-Sep-19 04:00N 35°12' E 139°46'611.6
2017-Sep-19 03:30N 35°18' E 139°44'713.5
2017-Sep-19 03:01N 35°24' E 139°43'1019.7
2017-Sep-19 02:30N 35°30' E 139°52'917.6
2017-Sep-19 02:00N 35°34' E 140°02'4 0.1
2017-Sep-17 00:44N 35°35' E 140°06'2 8.8
2017-Sep-17 00:28N 35°35' E 140°03'614.0
2017-Sep-17 00:00N 35°32' E 139°57'816.4
2017-Sep-16 23:30N 35°27' E 139°49'612.9
2017-Sep-16 23:00N 35°21' E 139°45'611.0
2017-Sep-16 22:30N 35°16' E 139°47'713.9
2017-Sep-16 22:00N 35°09' E 139°46'918.8
2017-Sep-16 21:30N 35°01' E 139°40'1120.0
2017-Sep-16 20:58N 34°55' E 139°29'23012.8
2017-Sep-16 02:57N 33°53' E 135°01'920.5
2017-Sep-16 02:30N 34°02' E 134°59'1121.2
2017-Sep-16 02:00N 34°12' E 134°58'1120.5
2017-Sep-16 01:29N 34°23' E 135°02'1021.0
2017-Sep-16 01:00N 34°29' E 135°12'917.4
2017-Sep-16 00:30N 34°33' E 135°21'3 5.1
2017-Sep-15 23:56N 34°31' E 135°24'0 0.0
2017-Sep-15 23:08N 34°31' E 135°24'0 0.0
2017-Sep-15 22:56N 34°31' E 135°24'0 0.0
2017-Sep-15 22:26N 34°31' E 135°24'0 0.0
2017-Sep-15 21:56N 34°31' E 135°24'0 0.2
2017-Sep-15 21:23N 34°31' E 135°24'3 8.4
2017-Sep-15 21:00N 34°33' E 135°21'1019.3
2017-Sep-15 20:30N 34°34' E 135°09'918.4
2017-Sep-15 20:00N 34°37' E 134°58'14 0.9
2017-Sep-15 04:06N 34°33' E 134°42'720.3
2017-Sep-15 03:46N 34°35' E 134°50'520.8
2017-Sep-15 03:30N 34°37' E 134°56'918.1
2017-Sep-15 03:00N 34°35' E 135°07'918.4
2017-Sep-15 02:30N 34°34' E 135°18'6 8.1
2017-Sep-15 01:49N 34°31' E 135°24'0 0.0
2017-Sep-15 01:25N 34°31' E 135°24'0 0.0
2017-Sep-15 00:55N 34°31' E 135°24'0 0.0
2017-Sep-15 00:25N 34°31' E 135°24'0 0.0
2017-Sep-14 23:55N 34°31' E 135°24'0 0.2
2017-Sep-14 23:25N 34°31' E 135°24'3 6.5
2017-Sep-14 23:00N 34°32' E 135°21'918.7
2017-Sep-14 22:30N 34°27' E 135°12'1019.4
2017-Sep-14 22:00N 34°21' E 135°03'917.7
2017-Sep-14 21:30N 34°12' E 134°60'1020.0
2017-Sep-14 21:01N 34°02' E 135°01'21315.8
2017-Sep-14 07:31N 34°44' E 139°14'017.6
2017-Sep-14 07:30N 34°45' E 139°14'917.7
2017-Sep-14 07:00N 34°50' E 139°23'918.5
2017-Sep-14 06:30N 34°57' E 139°30'1019.2
2017-Sep-14 06:00N 35°04' E 139°39'917.5
2017-Sep-14 05:30N 35°10' E 139°45'612.6
2017-Sep-14 05:00N 35°17' E 139°45'713.2
2017-Sep-14 04:30N 35°23' E 139°42'1019.5
2017-Sep-14 04:00N 35°29' E 139°51'918.4
2017-Sep-14 03:31N 35°34' E 140°01'5 0.7
2017-Sep-13 20:17N 35°35' E 140°06'3 8.1
2017-Sep-13 19:53N 35°35' E 140°03'616.3
2017-Sep-13 19:30N 35°31' E 139°56'816.9
2017-Sep-13 19:00N 35°26' E 139°48'612.6
2017-Sep-13 18:30N 35°20' E 139°44'611.5
2017-Sep-13 18:00N 35°15' E 139°47'815.7
2017-Sep-13 17:31N 35°07' E 139°46'1019.5
2017-Sep-13 17:01N 34°60' E 139°39'1220.1
2017-Sep-13 16:24N 34°53' E 139°26'1021.4
2017-Sep-13 15:56N 34°46' E 139°17'21817.1
2017-Sep-13 03:14N 33°58' E 135°00'418.7
2017-Sep-13 03:00N 34°03' E 134°60'1019.2
2017-Sep-13 02:30N 34°12' E 134°58'1018.8
2017-Sep-13 01:58N 34°22' E 135°01'919.9
2017-Sep-13 01:30N 34°27' E 135°10'918.0
2017-Sep-13 01:00N 34°32' E 135°19'4 1.0
2017-Sep-12 20:44N 34°31' E 135°24'1 3.5
2017-Sep-12 20:29N 34°32' E 135°24'714.6
2017-Sep-12 20:00N 34°33' E 135°15'1020.1
2017-Sep-12 19:30N 34°36' E 135°04'1019.1
2017-Sep-12 19:00N 34°34' E 134°52'12 0.8
2017-Sep-12 03:53N 34°33' E 134°37'920.2
2017-Sep-12 03:25N 34°34' E 134°49'922.1
2017-Sep-12 03:00N 34°37' E 134°59'1020.2
2017-Sep-12 02:31N 34°35' E 135°11'917.5
2017-Sep-12 02:00N 34°33' E 135°21'3 5.5
2017-Sep-12 01:27N 34°31' E 135°24'0 0.0
2017-Sep-12 00:57N 34°31' E 135°24'0 0.0
2017-Sep-12 00:27N 34°31' E 135°24'0 0.0
2017-Sep-11 23:51N 34°31' E 135°24'0 0.0
2017-Sep-11 23:27N 34°31' E 135°24'0 0.0
2017-Sep-11 22:57N 34°31' E 135°24'2 5.2
2017-Sep-11 22:30N 34°33' E 135°22'817.0
2017-Sep-11 22:00N 34°28' E 135°13'1019.2
2017-Sep-11 21:30N 34°22' E 135°05'817.0
2017-Sep-11 21:00N 34°14' E 134°60'1020.7
2017-Sep-11 20:30N 34°04' E 135°00'  

Dump ship's entire track history